Time;durP1;ratioP1;P1;durP2;ratioP2;P2;SDS_P1;SDS_P2;PMS_P1;PMS_P2;Temp;Humidity;BMP_temperature;BMP_pressure;BME280_temperature;BME280_humidity;BME280_pressure;Samples;Min_cycle;Max_cycle;Signal;HPM_P1;HPM_P2
2021/06/09 08:23:30;;;;;;;83.10;75.43;;;;;;;;;;2108547;27;20524;-58
2021/06/09 08:24:31;;;;;;;25.23;22.93;;;;;;;21.16;nan;99249.47;2104333;28;20519;-70
2021/06/09 08:25:32;;;;;;;17.23;15.83;;;;;;;21.20;nan;99263.13;2104252;28;20447;-70
2021/06/09 09:04:00;;;;;;;19.43;17.70;;;;;;;22.47;70.96;99244.41;2125205;27;20506;-78
2021/06/09 09:05:00;;;;;;;19.07;17.50;;;;;;;22.65;70.44;99257.44;2118473;28;20529;-79
2021/06/09 09:06:02;;;;;;;17.27;16.07;;;;;;;22.74;69.83;99249.75;2124121;27;20433;-81
2021/06/09 09:07:04;;;;;;;17.13;15.90;;;;;;;22.89;69.20;99253.47;2124387;27;20216;-80
2021/06/09 09:08:06;;;;;;;17.73;16.40;;;;;;;23.00;68.97;99246.16;2123732;27;20923;-81
2021/06/09 09:09:07;;;;;;;18.13;16.27;;;;;;;23.12;68.02;99243.97;2125002;27;20935;-80
2021/06/09 09:10:11;;;;;;;17.20;16.00;;;;;;;23.27;66.99;99246.81;2121933;27;20792;-80
2021/06/09 09:11:11;;;;;;;18.40;16.63;;;;;;;23.31;66.59;99244.91;2116845;28;20239;-79
2021/06/09 09:12:13;;;;;;;19.30;17.53;;;;;;;23.40;64.06;99265.22;2112544;28;20975;-78
2021/06/09 09:13:13;;;;;;;18.53;17.20;;;;;;;23.30;63.39;99249.56;2120403;27;20224;-79
2021/06/09 09:14:15;;;;;;;17.83;16.63;;;;;;;23.26;63.61;99247.97;2122206;27;20460;-78
2021/06/09 09:15:16;;;;;;;17.53;16.13;;;;;;;23.26;64.29;99256.13;2121064;27;20295;-78
2021/06/09 09:16:17;;;;;;;18.10;16.40;;;;;;;23.28;64.23;99261.97;2121666;27;20445;-79
2021/06/09 09:17:18;;;;;;;17.30;16.30;;;;;;;23.29;63.01;99260.84;2121421;27;20223;-79
2021/06/09 09:18:20;;;;;;;17.77;16.17;;;;;;;23.28;63.63;99264.69;2122038;27;20446;-78
2021/06/09 09:19:29;;;;;;;17.10;16.00;;;;;;;23.30;63.94;99254.25;2113498;28;20486;-79
2021/06/09 09:20:32;;;;;;;17.80;16.50;;;;;;;23.30;63.69;99248.78;2112270;27;20522;-79
2021/06/09 09:21:38;;;;;;;17.93;16.30;;;;;;;23.37;63.91;99251.56;2113267;28;20527;-80
2021/06/09 09:22:39;;;;;;;18.40;16.70;;;;;;;23.57;63.71;99258.34;2112400;27;20539;-78
2021/06/09 09:23:47;;;;;;;17.80;16.60;;;;;;;23.69;62.99;99255.34;2113061;28;20465;-78
2021/06/09 09:24:49;;;;;;;17.57;16.37;;;;;;;23.79;62.72;99259.28;2112673;28;20458;-78
2021/06/09 09:25:52;;;;;;;17.67;16.47;;;;;;;23.88;63.63;99248.84;2120076;27;20454;-78
2021/06/09 09:27:01;;;;;;;18.13;16.70;;;;;;;23.96;62.71;99257.84;2119760;27;20482;-78
2021/06/09 09:28:04;;;;;;;18.50;17.03;;;;;;;23.94;62.83;99254.72;2120732;27;20877;-79
2021/06/09 09:29:13;;;;;;;18.77;17.13;;;;;;;23.91;62.04;99261.72;2121440;27;20526;-78
2021/06/09 09:30:17;;;;;;;18.63;17.37;;;;;;;23.87;61.96;99257.38;2120553;27;20450;-78
2021/06/09 09:31:19;;;;;;;18.40;16.73;;;;;;;23.87;62.27;99254.66;2120006;27;20789;-79
2021/06/09 09:32:21;;;;;;;17.57;16.40;;;;;;;23.83;59.31;99259.31;2120036;27;20503;-78
2021/06/09 09:33:22;;;;;;;18.40;17.20;;;;;;;23.73;58.46;99243.69;2119716;27;20454;-79
2021/06/09 09:34:29;;;;;;;18.50;16.97;;;;;;;23.79;59.07;99263.97;2119863;27;20474;-78
2021/06/09 09:35:32;;;;;;;18.67;17.10;;;;;;;23.62;58.63;99249.81;2120040;27;20224;-78
2021/06/09 09:36:33;;;;;;;18.37;16.90;;;;;;;23.65;58.57;99256.47;2120385;27;20991;-78
2021/06/09 09:37:34;;;;;;;18.80;17.40;;;;;;;23.55;59.01;99260.66;2120836;27;20442;-79
2021/06/09 09:38:35;;;;;;;17.97;16.67;;;;;;;23.48;59.47;99259.81;2119738;27;20682;-78
2021/06/09 09:39:39;;;;;;;18.17;16.87;;;;;;;23.37;59.76;99255.09;2121031;27;20952;-79
2021/06/09 09:40:58;;;;;;;18.13;16.90;;;;;;;23.40;58.19;99258.97;2112296;27;20655;-83
2021/06/09 09:42:16;;;;;;;17.37;16.07;;;;;;;23.38;54.09;99262.09;2116239;27;20462;-77
2021/06/09 09:43:17;;;;;;;16.40;15.40;;;;;;;23.45;55.10;99255.13;2096567;28;20450;-77
2021/06/09 09:44:21;;;;;;;16.73;15.50;;;;;;;23.64;55.57;99255.69;2103147;28;20478;-77
2021/06/09 09:45:26;;;;;;;17.30;15.87;;;;;;;23.74;55.06;99256.94;2112438;27;20220;-82
2021/06/09 09:46:31;;;;;;;16.77;15.57;;;;;;;23.81;55.17;99248.03;2111224;28;20941;-81
2021/06/09 09:47:32;;;;;;;16.67;15.53;;;;;;;23.90;55.08;99253.94;2112465;28;20452;-80
2021/06/09 09:48:36;;;;;;;16.73;15.63;;;;;;;23.97;55.49;99243.03;2112846;28;20488;-80
2021/06/09 09:49:40;;;;;;;16.20;15.30;;;;;;;24.15;56.00;99248.59;2111761;28;20574;-81
2021/06/09 09:50:44;;;;;;;17.37;15.90;;;;;;;24.27;55.96;99250.22;2111493;28;20466;-81
2021/06/09 09:52:00;;;;;;;17.10;15.70;;;;;;;24.37;54.36;99261.19;2110934;28;20516;-80
2021/06/09 09:53:17;;;;;;;18.50;16.90;;;;;;;24.34;54.13;99250.28;2105140;28;20445;-81
2021/06/09 09:54:23;;;;;;;18.30;16.50;;;;;;;24.40;53.87;99254.19;2103003;28;20553;-82
2021/06/09 09:55:24;;;;;;;17.17;16.10;;;;;;;24.27;53.80;99242.81;2105199;28;20844;-82
2021/06/09 09:56:27;;;;;;;17.80;16.40;;;;;;;24.37;54.19;99252.22;2102982;28;20471;-82
2021/06/09 09:57:32;;;;;;;18.00;16.47;;;;;;;24.49;54.33;99249.16;2094968;28;20222;-82
2021/06/09 09:58:35;;;;;;;17.90;16.70;;;;;;;24.59;54.32;99250.38;2103756;28;20448;-82
2021/06/09 09:59:36;;;;;;;17.27;16.10;;;;;;;24.64;54.03;99247.25;2094992;28;20850;-82
2021/06/09 10:00:37;;;;;;;20.73;19.13;;;;;;;24.65;54.05;99255.06;2112021;28;20467;-82
2021/06/09 10:01:41;;;;;;;22.17;20.33;;;;;;;24.63;50.95;99245.69;2104595;28;20461;-82
2021/06/09 10:02:44;;;;;;;17.23;15.93;;;;;;;24.64;50.60;99258.94;2094736;28;20562;-81
2021/06/09 10:03:47;;;;;;;17.40;16.13;;;;;;;24.50;48.35;99256.19;2095055;28;20458;-81
2021/06/09 10:05:09;;;;;;;17.80;16.60;;;;;;;24.41;50.56;99247.56;2094848;28;20453;-81
2021/06/09 10:06:27;;;;;;;17.27;16.13;;;;;;;24.41;49.75;99251.09;2101438;28;20463;-81
2021/06/09 10:07:28;;;;;;;17.47;16.07;;;;;;;24.47;50.80;99248.75;2110985;27;20525;-81
2021/06/09 10:08:29;;;;;;;17.53;15.87;;;;;;;24.49;51.76;99260.84;2111596;28;20455;-82
2021/06/09 10:09:37;;;;;;;20.67;16.20;;;;;;;24.52;51.15;99243.72;2111328;28;20958;-81
2021/06/09 10:10:38;;;;;;;17.47;16.00;;;;;;;24.59;51.61;99248.44;2111082;28;20632;-82
2021/06/09 10:11:41;;;;;;;17.13;16.00;;;;;;;24.71;51.64;99247.28;2111899;28;20471;-82
2021/06/09 10:13:04;;;;;;;16.87;15.67;;;;;;;24.86;51.06;99243.44;2111236;28;20471;-82
2021/06/09 10:14:15;;;;;;;17.00;15.90;;;;;;;25.03;51.32;99247.38;2111817;27;20467;-82
2021/06/09 10:15:34;;;;;;;17.07;15.77;;;;;;;25.12;48.59;99253.25;2106461;27;20441;-82
2021/06/09 10:16:36;;;;;;;16.97;15.57;;;;;;;25.13;48.50;99238.41;2106761;28;20538;-82
2021/06/09 10:17:37;;;;;;;16.40;15.30;;;;;;;25.33;48.35;99245.03;2106456;28;20860;-82
2021/06/09 10:18:38;;;;;;;16.57;15.40;;;;;;;25.42;46.87;99258.31;2106550;28;20822;-81
2021/06/09 10:19:40;;;;;;;16.93;15.77;;;;;;;25.55;46.80;99258.72;2105798;28;20229;-79
2021/06/09 10:20:45;;;;;;;18.07;16.63;;;;;;;25.56;46.12;99246.59;2097342;28;20451;-76
2021/06/09 10:21:52;;;;;;;17.60;16.20;;;;;;;25.66;46.79;99251.28;2103613;28;20325;-75
2021/06/09 10:22:56;;;;;;;17.20;16.00;;;;;;;25.67;45.57;99252.84;2105766;28;20459;-76
2021/06/09 10:24:04;;;;;;;16.60;15.60;;;;;;;25.72;45.46;99249.75;2106227;28;20255;-78
2021/06/09 10:25:07;;;;;;;17.03;16.00;;;;;;;25.75;45.86;99242.69;2105667;28;20222;-77
2021/06/09 10:26:10;;;;;;;17.27;16.17;;;;;;;25.74;47.07;99246.63;2105242;28;20691;-77
2021/06/09 10:27:12;;;;;;;18.03;16.73;;;;;;;25.72;46.76;99248.97;2106372;28;20292;-78
2021/06/09 10:28:13;;;;;;;18.10;16.90;;;;;;;25.59;44.83;99251.28;2105606;28;20229;-77
2021/06/09 10:29:17;;;;;;;17.80;16.63;;;;;;;25.37;45.28;99247.78;2105886;28;20251;-78
2021/06/09 10:30:23;;;;;;;17.37;16.17;;;;;;;25.39;46.23;99248.19;2106267;28;20254;-77
2021/06/09 10:31:24;;;;;;;17.60;16.30;;;;;;;25.42;46.55;99243.88;2106089;28;20456;-77
2021/06/09 10:32:27;;;;;;;17.77;16.47;;;;;;;25.49;47.38;99246.59;2106148;28;20227;-78
2021/06/09 10:33:27;;;;;;;17.37;16.13;;;;;;;25.53;46.15;99239.94;2106165;28;20466;-78
2021/06/09 10:34:32;;;;;;;17.50;16.20;;;;;;;25.56;45.63;99241.13;2106549;28;20691;-77
2021/06/09 10:35:34;;;;;;;17.13;15.83;;;;;;;25.41;45.75;99245.03;2097529;28;20263;-77
2021/06/09 10:36:40;;;;;;;17.33;16.13;;;;;;;25.47;47.20;99244.28;2088818;28;20219;-78
2021/06/09 10:37:41;;;;;;;17.40;16.00;;;;;;;25.58;47.35;99249.72;2103447;28;20747;-75
2021/06/09 10:38:44;;;;;;;17.20;16.10;;;;;;;25.59;46.80;99238.38;2106030;28;20987;-75
2021/06/09 10:39:45;;;;;;;17.63;16.43;;;;;;;25.58;48.01;99238.78;2106261;28;20752;-75
2021/06/09 10:40:46;;;;;;;17.43;16.33;;;;;;;25.60;47.97;99231.75;2097950;28;20442;-75
2021/06/09 10:41:50;;;;;;;17.90;16.57;;;;;;;25.71;49.09;99239.97;2097029;28;20311;-75
2021/06/09 10:42:50;;;;;;;17.27;16.17;;;;;;;25.68;46.89;99232.53;2106132;28;20225;-74
2021/06/09 10:43:54;;;;;;;17.73;16.53;;;;;;;25.73;46.02;99240.38;2106191;28;20280;-74
2021/06/09 10:44:56;;;;;;;17.30;16.20;;;;;;;25.81;45.79;99228.25;2105838;28;20225;-75
2021/06/09 10:45:57;;;;;;;17.50;16.20;;;;;;;25.81;45.74;99219.28;2106036;28;20221;-75
2021/06/09 10:46:59;;;;;;;17.13;16.03;;;;;;;25.96;45.79;99225.47;2098373;28;20234;-76
2021/06/09 10:48:03;;;;;;;17.50;16.00;;;;;;;26.12;47.12;99229.31;2097027;28;20222;-79
2021/06/09 10:49:05;;;;;;;17.83;16.17;;;;;;;26.21;46.02;99228.88;2104895;28;20272;-77
2021/06/09 10:50:09;;;;;;;18.03;16.50;;;;;;;26.06;43.82;99235.56;2103340;28;20223;-76
2021/06/09 10:51:10;;;;;;;17.73;16.33;;;;;;;26.13;44.30;99232.81;2105599;28;20606;-77
2021/06/09 10:52:13;;;;;;;17.47;16.13;;;;;;;26.14;44.14;99226.94;2105990;28;20235;-77
2021/06/09 10:53:15;;;;;;;17.13;16.03;;;;;;;26.14;43.28;99226.19;2098087;28;20296;-77
2021/06/09 10:54:16;;;;;;;17.33;16.13;;;;;;;26.19;43.07;99225.78;2097023;28;20222;-77
2021/06/09 10:55:18;;;;;;;17.37;16.27;;;;;;;26.27;42.21;99223.78;2102504;28;20226;-77
2021/06/09 10:56:20;;;;;;;17.80;16.30;;;;;;;26.28;41.70;99231.59;2096953;28;20563;-77
2021/06/09 10:57:22;;;;;;;17.77;16.30;;;;;;;26.20;41.37;99224.59;2105291;28;20686;-77
2021/06/09 10:58:24;;;;;;;17.03;15.70;;;;;;;26.18;42.35;99216.00;2096804;28;20226;-76
2021/06/09 10:59:27;;;;;;;17.10;15.90;;;;;;;26.20;42.06;99221.88;2105379;28;20684;-76
2021/06/09 11:00:28;;;;;;;16.47;15.47;;;;;;;26.26;41.20;99223.03;2105290;28;20368;-77
2021/06/09 11:01:30;;;;;;;17.10;15.77;;;;;;;26.27;41.81;99210.13;2096922;28;20223;-76
2021/06/09 11:02:31;;;;;;;17.13;15.80;;;;;;;26.29;41.76;99214.00;2105405;28;20281;-77
2021/06/09 11:03:33;;;;;;;17.40;16.27;;;;;;;26.33;42.02;99214.00;2104539;28;20218;-77
2021/06/09 11:04:36;;;;;;;17.73;16.07;;;;;;;26.47;41.36;99220.19;2105201;28;20319;-77
2021/06/09 11:05:37;;;;;;;17.33;16.00;;;;;;;26.47;42.96;99233.88;2106305;28;20228;-83
2021/06/09 11:06:51;;;;;;;17.00;15.97;;;;;;;26.41;43.27;99219.09;2105149;28;20228;-81
2021/06/09 11:07:53;;;;;;;17.40;16.30;;;;;;;26.41;46.08;99213.59;2096263;28;20293;-78
2021/06/09 11:09:11;;;;;;;17.73;16.33;;;;;;;26.63;47.27;99205.28;2104979;28;20242;-76
2021/06/09 11:10:14;;;;;;;17.53;16.33;;;;;;;26.77;44.57;99213.41;2101219;28;20220;-78
2021/06/09 11:11:18;;;;;;;17.30;16.10;;;;;;;26.76;46.17;99209.09;2097519;28;20226;-77
2021/06/09 11:12:21;;;;;;;17.37;16.27;;;;;;;26.76;43.87;99209.09;2097268;28;20229;-77
2021/06/09 11:13:27;;;;;;;17.27;16.17;;;;;;;26.68;42.33;99216.59;2105009;28;20215;-78
2021/06/09 11:14:28;;;;;;;17.20;16.10;;;;;;;26.67;41.55;99214.22;2105406;28;20674;-79
2021/06/09 11:15:32;;;;;;;16.93;15.83;;;;;;;26.61;40.34;99211.16;2098142;28;20543;-77
2021/06/09 11:16:47;;;;;;;17.90;16.27;;;;;;;26.58;40.41;99213.88;2097475;28;20216;-79
2021/06/09 11:17:50;;;;;;;17.37;16.17;;;;;;;26.61;40.77;99210.38;2105071;28;20230;-76
2021/06/09 11:18:51;;;;;;;17.60;16.50;;;;;;;26.67;40.94;99206.00;2106113;28;20215;-77
2021/06/09 11:19:52;;;;;;;17.40;16.00;;;;;;;26.77;40.17;99213.41;2106082;28;20223;-76
2021/06/09 11:20:58;;;;;;;17.17;16.10;;;;;;;26.73;39.58;99213.41;2105677;28;20688;-77
2021/06/09 11:22:24;;;;;;;16.93;15.93;;;;;;;26.82;37.85;99198.50;2105006;28;20638;-77
2021/06/09 11:23:29;;;;;;;16.97;15.70;;;;;;;26.98;37.24;99207.75;2099635;28;20215;-77
2021/06/09 11:24:30;;;;;;;18.27;16.67;;;;;;;27.10;38.46;99208.47;2105239;28;20220;-77
2021/06/09 11:25:34;;;;;;;16.77;15.63;;;;;;;27.15;38.96;99205.31;2106032;28;20556;-77
2021/06/09 11:26:36;;;;;;;17.20;15.87;;;;;;;27.20;38.45;99204.91;2105286;28;20310;-76
2021/06/09 11:27:37;;;;;;;17.23;16.13;;;;;;;27.34;37.29;99204.75;2105166;28;20594;-78
2021/06/09 11:28:40;;;;;;;18.53;17.13;;;;;;;27.41;36.13;99210.19;2104654;28;20234;-77
2021/06/09 11:29:41;;;;;;;18.27;17.03;;;;;;;27.43;35.10;99202.31;2105670;28;20225;-77
2021/06/09 11:30:53;;;;;;;17.63;16.40;;;;;;;27.45;35.30;99213.66;2105676;28;20350;-77
2021/06/09 11:32:17;;;;;;;17.63;16.27;;;;;;;27.52;35.45;99207.34;2104637;28;20221;-78
2021/06/09 11:33:45;;;;;;;17.40;16.30;;;;;;;27.55;35.73;99209.28;2099727;28;20228;-77
2021/06/09 11:34:56;;;;;;;17.63;16.33;;;;;;;27.65;36.02;99204.88;2108268;28;20222;-79
2021/06/09 11:35:58;;;;;;;16.93;15.83;;;;;;;27.81;33.70;99208.66;2111999;28;20247;-77
2021/06/09 11:37:09;;;;;;;17.20;15.83;;;;;;;27.86;32.06;99199.19;2105566;28;20225;-80
2021/06/09 11:38:25;;;;;;;16.80;15.70;;;;;;;27.99;32.30;99200.22;2113006;28;20233;-79
2021/06/09 11:39:27;;;;;;;17.77;16.37;;;;;;;27.98;34.51;99198.66;2111225;28;20674;-81
2021/06/09 11:40:46;;;;;;;17.00;15.80;;;;;;;28.01;36.06;99194.31;2106056;28;20305;-80
2021/06/09 11:41:48;;;;;;;18.00;16.43;;;;;;;28.06;35.44;99197.41;2105438;28;20295;-78
2021/06/09 11:43:16;;;;;;;16.90;15.90;;;;;;;28.15;35.03;99194.16;2105526;28;20227;-80
2021/06/09 11:44:31;;;;;;;17.63;16.53;;;;;;;27.99;34.85;99191.22;2104322;28;20225;-77
2021/06/09 11:45:34;;;;;;;16.67;15.67;;;;;;;27.82;34.96;99201.19;2097951;28;20687;-76
2021/06/09 11:46:38;;;;;;;17.67;16.10;;;;;;;27.90;35.06;99196.41;2096710;28;20360;-79
2021/06/09 11:47:39;;;;;;;17.30;16.00;;;;;;;27.85;36.90;99192.13;2096452;28;20580;-78
2021/06/09 11:48:41;;;;;;;17.47;16.03;;;;;;;27.96;37.24;99181.03;2104900;28;20248;-78
2021/06/09 11:49:41;;;;;;;16.83;15.60;;;;;;;28.09;37.92;99179.31;2104544;28;20230;-78
2021/06/09 11:50:43;;;;;;;18.03;16.20;;;;;;;28.14;37.49;99176.13;2096480;28;20238;-79
2021/06/09 11:51:46;;;;;;;17.20;15.83;;;;;;;28.30;38.96;99184.56;2105498;28;20219;-79
2021/06/09 11:52:56;;;;;;;17.97;16.40;;;;;;;28.17;35.16;99181.56;2099742;28;20222;-79
2021/06/09 11:54:00;;;;;;;17.23;16.03;;;;;;;28.11;36.12;99177.72;2104781;28;20280;-78
2021/06/09 11:55:09;;;;;;;17.33;16.13;;;;;;;28.04;35.73;99183.28;2105757;28;20223;-78
2021/06/09 11:56:22;;;;;;;16.90;15.90;;;;;;;28.04;34.98;99177.81;2104456;28;20574;-79
2021/06/09 11:57:26;;;;;;;16.40;15.40;;;;;;;28.16;36.01;99179.25;2105643;28;20620;-78
2021/06/09 11:58:36;;;;;;;17.17;15.77;;;;;;;27.93;33.57;99177.16;2104518;28;20228;-79
2021/06/09 11:59:39;;;;;;;17.90;16.57;;;;;;;27.92;33.64;99180.31;2098142;28;20721;-77
2021/06/09 12:01:00;;;;;;;17.70;16.50;;;;;;;27.88;34.14;99177.59;2096218;28;20223;-78
2021/06/09 12:02:04;;;;;;;16.63;15.43;;;;;;;27.93;34.50;99166.19;2104608;28;20222;-77
2021/06/09 12:03:21;;;;;;;16.73;15.63;;;;;;;27.93;36.44;99160.69;2105076;28;20276;-78
2021/06/09 12:04:24;;;;;;;16.47;15.47;;;;;;;27.82;37.47;99165.53;2105412;28;20578;-78
2021/06/09 12:05:24;;;;;;;17.27;15.97;;;;;;;27.78;38.00;99164.78;2104286;28;20222;-78
2021/06/09 12:06:26;;;;;;;17.60;16.30;;;;;;;27.84;36.35;99169.44;2104598;28;20304;-78
2021/06/09 12:07:29;;;;;;;17.67;16.47;;;;;;;28.04;36.17;99166.81;2106033;28;20221;-78
2021/06/09 12:08:30;;;;;;;17.40;16.00;;;;;;;28.12;34.97;99159.28;2104474;28;20235;-79
2021/06/09 12:09:34;;;;;;;17.10;16.00;;;;;;;27.95;34.72;99168.50;2096686;28;20246;-78
2021/06/09 12:10:35;;;;;;;17.20;16.03;;;;;;;27.90;35.19;99158.78;2097087;28;20222;-78
2021/06/09 12:11:38;;;;;;;17.60;16.23;;;;;;;27.95;35.71;99163.03;2104598;28;20728;-77
2021/06/09 12:12:39;;;;;;;17.80;16.40;;;;;;;27.98;35.80;99165.75;2105031;28;20670;-77
2021/06/09 12:13:40;;;;;;;17.07;15.87;;;;;;;28.10;36.00;99159.72;2105333;28;20233;-77
2021/06/09 12:14:44;;;;;;;17.00;15.80;;;;;;;28.13;36.83;99167.09;2104509;28;20233;-76
2021/06/09 12:15:45;;;;;;;17.30;16.10;;;;;;;28.17;35.85;99165.09;2104513;28;20226;-77
2021/06/09 12:16:46;;;;;;;16.50;15.40;;;;;;;28.09;35.78;99157.38;2104626;28;20223;-77
2021/06/09 12:17:48;;;;;;;17.50;16.00;;;;;;;28.12;37.19;99162.03;2105428;28;20247;-78
2021/06/09 12:18:49;;;;;;;17.50;16.07;;;;;;;27.96;37.03;99154.38;2105389;28;20259;-77
2021/06/09 12:19:52;;;;;;;17.60;16.10;;;;;;;27.81;36.35;99159.28;2105753;28;20610;-77
2021/06/09 12:21:04;;;;;;;17.10;15.67;;;;;;;27.73;36.92;99163.28;2105321;28;20246;-78
2021/06/09 12:22:07;;;;;;;17.53;15.90;;;;;;;27.65;36.32;99159.03;2105562;28;20555;-78
2021/06/09 12:23:12;;;;;;;16.73;15.57;;;;;;;27.79;36.64;99156.16;2104160;28;20276;-78
2021/06/09 12:24:15;;;;;;;17.60;16.40;;;;;;;27.83;35.38;99154.16;2105242;28;20226;-78
2021/06/09 12:25:21;;;;;;;16.37;15.37;;;;;;;27.79;34.86;99156.16;2105699;28;20564;-78
2021/06/09 12:26:22;;;;;;;17.40;16.00;;;;;;;27.61;35.04;99145.34;2104750;28;20573;-78
2021/06/09 12:27:23;;;;;;;16.67;15.57;;;;;;;27.57;35.66;99144.63;2105482;28;20243;-81
2021/06/09 12:28:24;;;;;;;16.57;15.47;;;;;;;27.57;36.70;99149.34;2106216;28;20231;-78
2021/06/09 12:29:28;;;;;;;17.67;16.47;;;;;;;27.49;36.98;99148.63;2106880;28;20250;-78
2021/06/09 12:30:29;;;;;;;16.77;15.77;;;;;;;27.66;37.20;99148.84;2104633;28;20293;-79
2021/06/09 12:31:31;;;;;;;17.73;16.50;;;;;;;27.87;37.52;99146.66;2096155;28;20282;-77
2021/06/09 12:32:34;;;;;;;17.53;16.30;;;;;;;28.07;35.49;99149.56;2104557;28;20284;-80
2021/06/09 12:33:39;;;;;;;17.70;16.50;;;;;;;28.12;35.34;99148.31;2103682;28;20246;-76
2021/06/09 12:34:40;;;;;;;17.37;15.87;;;;;;;28.25;36.21;99129.34;2103308;28;20227;-77
2021/06/09 12:35:41;;;;;;;17.77;16.00;;;;;;;28.61;36.98;99149.63;2105438;28;20222;-78
2021/06/09 12:36:50;;;;;;;17.37;15.70;;;;;;;28.62;36.07;99151.16;2104903;28;20230;-79
2021/06/09 12:37:55;;;;;;;17.07;15.77;;;;;;;28.56;35.48;99147.34;2105048;28;20273;-79
2021/06/09 12:38:55;;;;;;;17.17;16.00;;;;;;;28.67;34.73;99147.19;2104072;28;20728;-78
2021/06/09 12:40:04;;;;;;;18.00;16.47;;;;;;;28.69;35.60;99144.81;2104484;28;20326;-78
2021/06/09 12:41:09;;;;;;;16.87;15.77;;;;;;;28.75;34.71;99147.84;2105182;28;20303;-77
2021/06/09 12:42:12;;;;;;;17.90;16.50;;;;;;;28.60;34.05;99148.06;2104714;28;20226;-76
2021/06/09 12:43:13;;;;;;;17.33;16.20;;;;;;;28.75;35.16;99147.84;2104268;28;20230;-75
2021/06/09 12:44:14;;;;;;;18.17;16.57;;;;;;;28.88;34.41;99146.84;2104507;28;20227;-75
2021/06/09 12:45:17;;;;;;;17.37;16.27;;;;;;;29.00;33.32;99148.25;2101827;28;20576;-76
2021/06/09 12:46:19;;;;;;;17.43;16.03;;;;;;;28.91;32.68;99151.53;2095986;28;20316;-76
2021/06/09 12:47:29;;;;;;;17.30;16.20;;;;;;;28.84;32.43;99151.59;2104352;28;20224;-78
2021/06/09 12:48:35;;;;;;;18.00;16.70;;;;;;;29.03;33.19;99149.41;2104321;28;20224;-78
2021/06/09 12:49:36;;;;;;;17.83;16.43;;;;;;;28.91;33.11;99150.75;2104514;28;20223;-77
2021/06/09 12:50:40;;;;;;;18.13;16.83;;;;;;;28.99;32.13;99143.94;2105211;28;20246;-77
2021/06/09 12:51:41;;;;;;;18.10;16.80;;;;;;;29.13;33.39;99143.72;2103992;28;20688;-78
2021/06/09 12:52:43;;;;;;;17.60;16.40;;;;;;;29.15;32.01;99146.81;2104466;28;20227;-78
2021/06/09 12:53:46;;;;;;;17.57;16.10;;;;;;;28.92;32.45;99130.31;2112625;28;20238;-79
2021/06/09 12:54:51;;;;;;;17.13;16.00;;;;;;;28.88;32.49;99124.88;2105249;28;20216;-79
2021/06/09 12:55:55;;;;;;;16.50;15.60;;;;;;;28.83;32.82;99149.28;2105000;28;20545;-79
2021/06/09 12:56:58;;;;;;;17.77;16.60;;;;;;;28.47;33.30;99133.34;2104967;28;20229;-79
2021/06/09 12:58:01;;;;;;;17.50;16.40;;;;;;;28.41;33.78;99151.50;2105030;28;20223;-79
2021/06/09 12:59:02;;;;;;;16.60;15.40;;;;;;;28.06;33.47;99138.97;2105109;28;20310;-80
2021/06/09 13:00:20;;;;;;;17.20;15.70;;;;;;;27.91;33.85;99143.13;2104484;28;20297;-79
2021/06/09 13:01:21;;;;;;;17.63;16.30;;;;;;;27.64;34.18;99141.03;2106451;28;20219;-77
2021/06/09 13:02:22;;;;;;;19.33;17.93;;;;;;;27.66;34.57;99135.94;2104304;28;20229;-77
2021/06/09 13:03:28;;;;;;;18.63;17.43;;;;;;;27.58;35.71;99129.75;2103691;28;20229;-77
2021/06/09 13:04:37;;;;;;;18.97;17.67;;;;;;;27.48;36.30;99135.34;2104308;28;20598;-77
2021/06/09 13:05:39;;;;;;;19.17;17.67;;;;;;;27.48;36.01;99125.16;2104121;28;20613;-79
2021/06/09 13:06:40;;;;;;;18.90;17.40;;;;;;;27.42;35.65;99137.75;2104949;28;20221;-76
2021/06/09 13:07:41;;;;;;;20.20;18.33;;;;;;;27.48;35.48;99133.38;2105060;28;20225;-75
2021/06/09 13:08:45;;;;;;;18.90;17.70;;;;;;;27.48;35.79;99127.91;2103892;28;20226;-75
2021/06/09 13:09:54;;;;;;;19.53;17.93;;;;;;;27.54;35.76;99129.00;2104278;28;20667;-75
2021/06/09 13:11:07;;;;;;;20.23;18.40;;;;;;;27.64;35.95;99127.34;2104569;28;20237;-75
2021/06/09 13:12:10;;;;;;;19.63;17.90;;;;;;;27.53;36.16;99132.13;2101757;28;20229;-74
2021/06/09 13:13:13;;;;;;;19.63;18.23;;;;;;;27.58;35.45;99129.75;2096173;28;20706;-74
2021/06/09 13:14:14;;;;;;;19.50;18.13;;;;;;;27.55;35.91;99122.34;2104353;28;20250;-74
2021/06/09 13:15:20;;;;;;;19.50;18.17;;;;;;;27.54;36.19;99120.78;2105187;28;20303;-74
2021/06/09 13:16:24;;;;;;;19.33;17.93;;;;;;;27.57;36.70;99117.22;2104983;28;20677;-74
2021/06/09 13:17:25;;;;;;;19.67;18.07;;;;;;;27.63;36.55;99124.97;2103752;28;20238;-74
2021/06/09 13:18:43;;;;;;;19.87;18.00;;;;;;;27.49;36.26;99115.75;2095889;28;20230;-75
2021/06/09 13:19:44;;;;;;;19.47;18.03;;;;;;;27.44;35.94;99118.91;2097895;28;20296;-79
2021/06/09 13:20:45;;;;;;;19.00;17.60;;;;;;;27.48;35.87;99119.69;2096157;28;20234;-77
2021/06/09 13:21:47;;;;;;;19.67;18.20;;;;;;;27.53;35.84;99121.94;2104366;28;20225;-78
2021/06/09 13:22:49;;;;;;;18.57;17.27;;;;;;;27.49;35.84;99121.22;2104199;28;20578;-78
2021/06/09 13:23:54;;;;;;;18.87;17.37;;;;;;;27.54;37.10;99123.53;2104448;28;20222;-77
2021/06/09 13:24:57;;;;;;;19.43;17.83;;;;;;;27.53;36.86;99119.22;2103599;28;20303;-77
2021/06/09 13:26:05;;;;;;;19.97;18.33;;;;;;;27.66;36.76;99125.00;2096092;28;20261;-77
2021/06/09 13:27:08;;;;;;;19.40;18.00;;;;;;;27.65;36.28;99122.63;2092526;28;20227;-77
2021/06/09 13:28:10;;;;;;;18.47;17.17;;;;;;;27.77;37.03;99125.63;2091652;28;20613;-76
2021/06/09 13:29:13;;;;;;;19.17;17.77;;;;;;;27.87;36.80;99118.47;2104262;28;20272;-79
2021/06/09 13:30:14;;;;;;;19.83;18.23;;;;;;;28.01;36.89;99123.00;2105084;28;20249;-76
2021/06/09 13:31:16;;;;;;;20.27;18.50;;;;;;;28.11;34.74;99125.59;2101451;28;20704;-77
2021/06/09 13:32:22;;;;;;;19.37;17.67;;;;;;;28.28;33.87;99126.53;2104296;28;20252;-80
2021/06/09 13:33:24;;;;;;;19.17;17.87;;;;;;;28.39;33.84;99126.41;2100194;28;20282;-79
2021/06/09 13:34:25;;;;;;;19.67;17.87;;;;;;;28.46;34.30;99128.28;2104318;28;20230;-77
2021/06/09 13:35:27;;;;;;;19.60;18.10;;;;;;;28.33;34.31;99130.84;2101119;28;20266;-76
2021/06/09 13:36:28;;;;;;;19.30;17.60;;;;;;;28.41;34.31;99122.09;2104990;28;20644;-76
2021/06/09 13:37:31;;;;;;;19.30;17.90;;;;;;;28.42;35.32;99123.63;2104251;28;20325;-76
2021/06/09 13:38:32;;;;;;;18.87;17.47;;;;;;;28.38;35.70;99119.38;2104143;28;20271;-77
2021/06/09 13:39:39;;;;;;;19.87;18.17;;;;;;;28.33;35.21;99123.38;2105461;28;20299;-78
2021/06/09 13:40:40;;;;;;;20.53;18.80;;;;;;;28.32;35.41;99110.03;2104529;28;20218;-77
2021/06/09 13:41:43;;;;;;;19.47;17.73;;;;;;;28.36;35.42;99121.75;2104217;28;20320;-77
2021/06/09 13:42:45;;;;;;;20.00;18.40;;;;;;;28.41;34.74;99121.31;2104078;28;20282;-76
2021/06/09 13:43:56;;;;;;;19.90;18.20;;;;;;;28.34;35.29;99115.91;2104062;28;20226;-77
2021/06/09 13:44:59;;;;;;;19.60;17.87;;;;;;;28.38;35.38;99113.88;2104146;28;20258;-76
2021/06/09 13:46:03;;;;;;;19.57;18.03;;;;;;;28.46;35.25;99117.31;2104958;28;20228;-76
2021/06/09 13:47:04;;;;;;;19.30;17.90;;;;;;;28.30;35.79;99104.97;2104244;28;20702;-77
2021/06/09 13:48:08;;;;;;;20.30;18.50;;;;;;;28.29;35.30;99106.16;2104167;28;20330;-76
2021/06/09 13:49:09;;;;;;;19.63;18.17;;;;;;;28.27;35.69;99103.03;2104507;28;20228;-76
2021/06/09 13:50:15;;;;;;;18.73;17.23;;;;;;;28.34;35.04;99107.69;2105563;28;20258;-76
2021/06/09 13:51:18;;;;;;;18.20;16.80;;;;;;;28.31;34.89;99103.00;2105625;28;20315;-82
2021/06/09 13:52:26;;;;;;;17.60;16.50;;;;;;;28.37;34.70;99106.84;2106870;28;20219;-83
2021/06/09 13:53:27;;;;;;;17.97;16.77;;;;;;;28.55;35.25;99107.34;2105525;28;20226;-82
2021/06/09 13:54:30;;;;;;;18.60;17.00;;;;;;;28.64;35.96;99110.34;2105601;28;20704;-83
2021/06/09 13:55:37;;;;;;;19.10;17.20;;;;;;;28.72;37.94;99105.50;2106076;28;20690;-80
2021/06/09 13:56:41;;;;;;;18.63;17.13;;;;;;;28.59;38.46;99094.34;2103716;28;20224;-84